sensor_id;sensor_type;location;lat;lon;timestamp;P1;durP1;ratioP1;P2;durP2;ratioP2
65031;SDS011;51593;55.714;37.436;2022-10-29T00:01:46;10.18;;;5.70;;
65031;SDS011;51593;55.714;37.436;2022-10-29T00:04:12;8.77;;;5.50;;
65031;SDS011;51593;55.714;37.436;2022-10-29T00:06:37;10.13;;;5.78;;
65031;SDS011;51593;55.714;37.436;2022-10-29T00:09:03;9.13;;;5.40;;
65031;SDS011;51593;55.714;37.436;2022-10-29T00:11:29;8.75;;;5.25;;
65031;SDS011;51593;55.714;37.436;2022-10-29T00:13:56;10.98;;;5.38;;
65031;SDS011;51593;55.714;37.436;2022-10-29T00:16:25;9.88;;;5.35;;
65031;SDS011;51593;55.714;37.436;2022-10-29T00:18:53;8.77;;;5.07;;
65031;SDS011;51593;55.714;37.436;2022-10-29T00:21:20;8.80;;;4.93;;
65031;SDS011;51593;55.714;37.436;2022-10-29T00:23:47;7.22;;;4.20;;
65031;SDS011;51593;55.714;37.436;2022-10-29T00:26:14;9.27;;;4.40;;
65031;SDS011;51593;55.714;37.436;2022-10-29T00:28:40;7.45;;;4.72;;
65031;SDS011;51593;55.714;37.436;2022-10-29T00:31:07;8.77;;;5.00;;
65031;SDS011;51593;55.714;37.436;2022-10-29T00:33:36;8.70;;;4.50;;
65031;SDS011;51593;55.714;37.436;2022-10-29T00:36:06;8.73;;;4.60;;
65031;SDS011;51593;55.714;37.436;2022-10-29T00:38:34;6.68;;;3.90;;
65031;SDS011;51593;55.714;37.436;2022-10-29T00:41:01;6.95;;;4.30;;
65031;SDS011;51593;55.714;37.436;2022-10-29T00:43:27;6.43;;;3.65;;
65031;SDS011;51593;55.714;37.436;2022-10-29T00:45:58;6.80;;;3.55;;
65031;SDS011;51593;55.714;37.436;2022-10-29T00:48:26;6.20;;;3.60;;
65031;SDS011;51593;55.714;37.436;2022-10-29T00:50:53;6.15;;;3.33;;
65031;SDS011;51593;55.714;37.436;2022-10-29T00:53:21;5.55;;;3.42;;
65031;SDS011;51593;55.714;37.436;2022-10-29T00:55:48;6.70;;;3.60;;
65031;SDS011;51593;55.714;37.436;2022-10-29T00:58:14;6.32;;;3.45;;
65031;SDS011;51593;55.714;37.436;2022-10-29T01:00:40;8.05;;;3.40;;
65031;SDS011;51593;55.714;37.436;2022-10-29T01:03:07;5.10;;;3.13;;
65031;SDS011;51593;55.714;37.436;2022-10-29T01:05:32;6.85;;;3.33;;
65031;SDS011;51593;55.714;37.436;2022-10-29T01:07:59;7.13;;;3.10;;
65031;SDS011;51593;55.714;37.436;2022-10-29T01:16:00;6.32;;;3.22;;
65031;SDS011;51593;55.714;37.436;2022-10-29T01:18:48;8.00;;;3.55;;
65031;SDS011;51593;55.714;37.436;2022-10-29T01:27:09;8.07;;;4.20;;
65031;SDS011;51593;55.714;37.436;2022-10-29T01:40:38;9.10;;;4.22;;
65031;SDS011;51593;55.714;37.436;2022-10-29T01:43:27;7.10;;;4.03;;
65031;SDS011;51593;55.714;37.436;2022-10-29T01:46:22;8.77;;;3.97;;
65031;SDS011;51593;55.714;37.436;2022-10-29T01:48:56;7.32;;;4.30;;
65031;SDS011;51593;55.714;37.436;2022-10-29T01:51:26;8.35;;;4.32;;
65031;SDS011;51593;55.714;37.436;2022-10-29T01:53:53;8.90;;;4.35;;
65031;SDS011;51593;55.714;37.436;2022-10-29T01:56:19;7.32;;;4.20;;
65031;SDS011;51593;55.714;37.436;2022-10-29T01:58:46;8.23;;;4.60;;
65031;SDS011;51593;55.714;37.436;2022-10-29T02:01:18;7.60;;;4.60;;
65031;SDS011;51593;55.714;37.436;2022-10-29T02:06:39;11.00;;;5.10;;
65031;SDS011;51593;55.714;37.436;2022-10-29T02:09:21;9.15;;;5.43;;
65031;SDS011;51593;55.714;37.436;2022-10-29T02:15:03;11.18;;;4.95;;
65031;SDS011;51593;55.714;37.436;2022-10-29T02:17:32;10.13;;;5.35;;
65031;SDS011;51593;55.714;37.436;2022-10-29T02:20:06;12.15;;;5.07;;
65031;SDS011;51593;55.714;37.436;2022-10-29T02:22:33;11.48;;;5.40;;
65031;SDS011;51593;55.714;37.436;2022-10-29T02:24:59;13.50;;;5.10;;
65031;SDS011;51593;55.714;37.436;2022-10-29T02:27:25;11.63;;;5.00;;
65031;SDS011;51593;55.714;37.436;2022-10-29T02:29:51;9.48;;;4.95;;
65031;SDS011;51593;55.714;37.436;2022-10-29T02:32:17;8.38;;;4.78;;
65031;SDS011;51593;55.714;37.436;2022-10-29T02:34:43;10.57;;;5.05;;
65031;SDS011;51593;55.714;37.436;2022-10-29T02:37:08;8.45;;;4.55;;
65031;SDS011;51593;55.714;37.436;2022-10-29T02:39:34;7.57;;;4.63;;
65031;SDS011;51593;55.714;37.436;2022-10-29T02:42:00;6.15;;;4.10;;
65031;SDS011;51593;55.714;37.436;2022-10-29T02:44:25;8.00;;;4.95;;
65031;SDS011;51593;55.714;37.436;2022-10-29T02:46:51;8.65;;;5.00;;
65031;SDS011;51593;55.714;37.436;2022-10-29T02:49:17;7.47;;;4.72;;
65031;SDS011;51593;55.714;37.436;2022-10-29T02:51:43;8.00;;;4.63;;
65031;SDS011;51593;55.714;37.436;2022-10-29T02:54:08;12.98;;;4.85;;
65031;SDS011;51593;55.714;37.436;2022-10-29T02:56:34;8.60;;;4.72;;
65031;SDS011;51593;55.714;37.436;2022-10-29T02:59:00;9.63;;;4.93;;
65031;SDS011;51593;55.714;37.436;2022-10-29T03:01:25;9.43;;;4.90;;
65031;SDS011;51593;55.714;37.436;2022-10-29T03:03:51;10.68;;;5.28;;
65031;SDS011;51593;55.714;37.436;2022-10-29T03:06:17;8.27;;;4.70;;
65031;SDS011;51593;55.714;37.436;2022-10-29T03:08:44;7.55;;;4.68;;
65031;SDS011;51593;55.714;37.436;2022-10-29T03:11:10;9.07;;;5.30;;
65031;SDS011;51593;55.714;37.436;2022-10-29T03:13:36;9.00;;;5.43;;
65031;SDS011;51593;55.714;37.436;2022-10-29T03:16:02;13.20;;;4.85;;
65031;SDS011;51593;55.714;37.436;2022-10-29T03:18:29;10.63;;;5.50;;
65031;SDS011;51593;55.714;37.436;2022-10-29T03:20:54;10.10;;;5.78;;
65031;SDS011;51593;55.714;37.436;2022-10-29T03:23:20;9.80;;;5.10;;
65031;SDS011;51593;55.714;37.436;2022-10-29T03:25:50;10.82;;;5.30;;
65031;SDS011;51593;55.714;37.436;2022-10-29T03:28:18;8.88;;;5.15;;
65031;SDS011;51593;55.714;37.436;2022-10-29T03:30:44;8.82;;;5.20;;
65031;SDS011;51593;55.714;37.436;2022-10-29T03:33:10;9.60;;;4.90;;
65031;SDS011;51593;55.714;37.436;2022-10-29T03:35:36;10.48;;;5.15;;
65031;SDS011;51593;55.714;37.436;2022-10-29T03:38:02;7.63;;;5.00;;
65031;SDS011;51593;55.714;37.436;2022-10-29T03:40:28;7.53;;;4.70;;
65031;SDS011;51593;55.714;37.436;2022-10-29T03:42:53;8.45;;;5.18;;
65031;SDS011;51593;55.714;37.436;2022-10-29T03:45:19;8.30;;;5.05;;
65031;SDS011;51593;55.714;37.436;2022-10-29T03:47:45;10.55;;;5.55;;
65031;SDS011;51593;55.714;37.436;2022-10-29T03:50:10;9.35;;;4.88;;
65031;SDS011;51593;55.714;37.436;2022-10-29T03:52:36;10.80;;;4.95;;
65031;SDS011;51593;55.714;37.436;2022-10-29T03:55:02;9.05;;;5.03;;
65031;SDS011;51593;55.714;37.436;2022-10-29T03:57:29;13.43;;;5.10;;
65031;SDS011;51593;55.714;37.436;2022-10-29T03:59:55;12.32;;;5.35;;
65031;SDS011;51593;55.714;37.436;2022-10-29T04:02:21;10.50;;;5.40;;
65031;SDS011;51593;55.714;37.436;2022-10-29T04:04:47;12.40;;;5.07;;
65031;SDS011;51593;55.714;37.436;2022-10-29T04:07:13;13.55;;;5.32;;
65031;SDS011;51593;55.714;37.436;2022-10-29T04:09:38;10.65;;;5.25;;
65031;SDS011;51593;55.714;37.436;2022-10-29T04:12:04;10.43;;;4.95;;
65031;SDS011;51593;55.714;37.436;2022-10-29T04:14:31;10.85;;;5.50;;
65031;SDS011;51593;55.714;37.436;2022-10-29T04:16:57;10.60;;;5.47;;
65031;SDS011;51593;55.714;37.436;2022-10-29T04:19:23;8.75;;;5.00;;
65031;SDS011;51593;55.714;37.436;2022-10-29T04:21:49;8.60;;;4.65;;
65031;SDS011;51593;55.714;37.436;2022-10-29T04:24:14;9.85;;;5.43;;
65031;SDS011;51593;55.714;37.436;2022-10-29T04:26:43;9.75;;;4.88;;
65031;SDS011;51593;55.714;37.436;2022-10-29T04:29:10;8.45;;;4.53;;
65031;SDS011;51593;55.714;37.436;2022-10-29T04:31:35;11.90;;;5.43;;
65031;SDS011;51593;55.714;37.436;2022-10-29T04:34:02;14.00;;;5.00;;
65031;SDS011;51593;55.714;37.436;2022-10-29T04:36:28;14.65;;;5.88;;
65031;SDS011;51593;55.714;37.436;2022-10-29T04:41:50;18.70;;;5.18;;
65031;SDS011;51593;55.714;37.436;2022-10-29T04:44:16;9.77;;;5.15;;
65031;SDS011;51593;55.714;37.436;2022-10-29T04:46:42;11.10;;;4.93;;
65031;SDS011;51593;55.714;37.436;2022-10-29T04:49:07;13.20;;;5.35;;
65031;SDS011;51593;55.714;37.436;2022-10-29T04:51:33;17.83;;;7.10;;
65031;SDS011;51593;55.714;37.436;2022-10-29T04:53:59;23.30;;;7.90;;
65031;SDS011;51593;55.714;37.436;2022-10-29T04:56:25;23.70;;;8.73;;
65031;SDS011;51593;55.714;37.436;2022-10-29T04:58:51;22.42;;;7.90;;
65031;SDS011;51593;55.714;37.436;2022-10-29T05:01:17;25.98;;;9.43;;
65031;SDS011;51593;55.714;37.436;2022-10-29T05:03:43;34.55;;;11.00;;
65031;SDS011;51593;55.714;37.436;2022-10-29T05:06:08;33.58;;;9.25;;
65031;SDS011;51593;55.714;37.436;2022-10-29T05:08:34;20.85;;;7.45;;
65031;SDS011;51593;55.714;37.436;2022-10-29T05:11:03;19.20;;;6.38;;
65031;SDS011;51593;55.714;37.436;2022-10-29T05:13:30;29.33;;;8.73;;
65031;SDS011;51593;55.714;37.436;2022-10-29T05:15:57;32.20;;;7.68;;
65031;SDS011;51593;55.714;37.436;2022-10-29T05:18:23;30.63;;;7.20;;
65031;SDS011;51593;55.714;37.436;2022-10-29T05:20:55;22.23;;;7.53;;
65031;SDS011;51593;55.714;37.436;2022-10-29T05:23:21;22.63;;;7.75;;
65031;SDS011;51593;55.714;37.436;2022-10-29T05:25:47;22.40;;;7.25;;
65031;SDS011;51593;55.714;37.436;2022-10-29T05:28:16;33.08;;;7.53;;
65031;SDS011;51593;55.714;37.436;2022-10-29T05:30:43;21.92;;;5.65;;
65031;SDS011;51593;55.714;37.436;2022-10-29T05:33:10;17.05;;;5.25;;
65031;SDS011;51593;55.714;37.436;2022-10-29T05:35:37;15.05;;;5.55;;
65031;SDS011;51593;55.714;37.436;2022-10-29T05:38:03;19.83;;;5.75;;
65031;SDS011;51593;55.714;37.436;2022-10-29T05:40:29;21.23;;;5.88;;
65031;SDS011;51593;55.714;37.436;2022-10-29T05:42:55;37.85;;;6.75;;
65031;SDS011;51593;55.714;37.436;2022-10-29T05:45:21;22.20;;;5.70;;
65031;SDS011;51593;55.714;37.436;2022-10-29T05:47:47;15.98;;;5.47;;
65031;SDS011;51593;55.714;37.436;2022-10-29T05:50:13;22.15;;;6.32;;
65031;SDS011;51593;55.714;37.436;2022-10-29T05:52:39;37.95;;;7.38;;
65031;SDS011;51593;55.714;37.436;2022-10-29T05:55:05;46.83;;;12.85;;
65031;SDS011;51593;55.714;37.436;2022-10-29T05:57:31;30.15;;;8.98;;
65031;SDS011;51593;55.714;37.436;2022-10-29T05:59:57;35.90;;;8.88;;
65031;SDS011;51593;55.714;37.436;2022-10-29T06:02:23;20.15;;;6.90;;
65031;SDS011;51593;55.714;37.436;2022-10-29T06:04:49;16.45;;;5.95;;
65031;SDS011;51593;55.714;37.436;2022-10-29T06:07:15;14.05;;;5.45;;
65031;SDS011;51593;55.714;37.436;2022-10-29T06:09:41;11.77;;;5.18;;
65031;SDS011;51593;55.714;37.436;2022-10-29T06:12:07;15.25;;;5.38;;
65031;SDS011;51593;55.714;37.436;2022-10-29T06:14:33;15.90;;;5.65;;
65031;SDS011;51593;55.714;37.436;2022-10-29T06:16:59;21.83;;;7.43;;
65031;SDS011;51593;55.714;37.436;2022-10-29T06:19:26;25.70;;;7.10;;
65031;SDS011;51593;55.714;37.436;2022-10-29T06:21:51;23.10;;;6.30;;
65031;SDS011;51593;55.714;37.436;2022-10-29T06:24:17;30.45;;;9.70;;
65031;SDS011;51593;55.714;37.436;2022-10-29T06:26:43;31.30;;;10.55;;
65031;SDS011;51593;55.714;37.436;2022-10-29T06:29:08;23.35;;;8.25;;
65031;SDS011;51593;55.714;37.436;2022-10-29T06:31:34;15.05;;;6.10;;
65031;SDS011;51593;55.714;37.436;2022-10-29T06:34:00;12.52;;;5.68;;
65031;SDS011;51593;55.714;37.436;2022-10-29T06:36:26;11.52;;;5.28;;
65031;SDS011;51593;55.714;37.436;2022-10-29T06:38:52;14.38;;;5.70;;
65031;SDS011;51593;55.714;37.436;2022-10-29T06:41:18;13.30;;;5.60;;
65031;SDS011;51593;55.714;37.436;2022-10-29T06:43:49;16.30;;;6.35;;
65031;SDS011;51593;55.714;37.436;2022-10-29T06:46:15;16.73;;;5.78;;
65031;SDS011;51593;55.714;37.436;2022-10-29T06:48:40;10.55;;;4.63;;
65031;SDS011;51593;55.714;37.436;2022-10-29T06:51:06;14.93;;;5.35;;
65031;SDS011;51593;55.714;37.436;2022-10-29T06:53:32;20.40;;;5.43;;
65031;SDS011;51593;55.714;37.436;2022-10-29T06:55:58;11.93;;;5.15;;
65031;SDS011;51593;55.714;37.436;2022-10-29T06:58:24;15.85;;;7.45;;
65031;SDS011;51593;55.714;37.436;2022-10-29T07:00:50;16.48;;;6.20;;
65031;SDS011;51593;55.714;37.436;2022-10-29T07:03:16;14.32;;;5.55;;
65031;SDS011;51593;55.714;37.436;2022-10-29T07:05:43;18.08;;;6.30;;
65031;SDS011;51593;55.714;37.436;2022-10-29T07:08:09;12.15;;;5.20;;
65031;SDS011;51593;55.714;37.436;2022-10-29T07:10:36;14.35;;;5.60;;
65031;SDS011;51593;55.714;37.436;2022-10-29T07:13:02;12.68;;;4.68;;
65031;SDS011;51593;55.714;37.436;2022-10-29T07:15:29;20.15;;;6.70;;
65031;SDS011;51593;55.714;37.436;2022-10-29T07:17:59;16.10;;;6.40;;
65031;SDS011;51593;55.714;37.436;2022-10-29T07:20:27;18.20;;;5.72;;
65031;SDS011;51593;55.714;37.436;2022-10-29T07:22:55;18.33;;;6.30;;
65031;SDS011;51593;55.714;37.436;2022-10-29T07:25:22;12.82;;;5.68;;
65031;SDS011;51593;55.714;37.436;2022-10-29T07:27:48;15.40;;;6.22;;
65031;SDS011;51593;55.714;37.436;2022-10-29T07:30:14;16.50;;;6.72;;
65031;SDS011;51593;55.714;37.436;2022-10-29T07:32:41;19.88;;;7.30;;
65031;SDS011;51593;55.714;37.436;2022-10-29T07:35:07;15.68;;;6.05;;
65031;SDS011;51593;55.714;37.436;2022-10-29T07:37:33;13.18;;;5.70;;
65031;SDS011;51593;55.714;37.436;2022-10-29T07:39:59;11.63;;;5.35;;
65031;SDS011;51593;55.714;37.436;2022-10-29T07:42:25;17.45;;;5.65;;
65031;SDS011;51593;55.714;37.436;2022-10-29T07:44:50;14.75;;;5.85;;
65031;SDS011;51593;55.714;37.436;2022-10-29T07:47:16;14.45;;;6.40;;
65031;SDS011;51593;55.714;37.436;2022-10-29T07:49:42;14.80;;;6.45;;
65031;SDS011;51593;55.714;37.436;2022-10-29T07:52:08;14.90;;;6.10;;
65031;SDS011;51593;55.714;37.436;2022-10-29T07:54:34;15.20;;;6.25;;
65031;SDS011;51593;55.714;37.436;2022-10-29T07:57:00;13.98;;;6.22;;
65031;SDS011;51593;55.714;37.436;2022-10-29T07:59:25;16.33;;;6.63;;
65031;SDS011;51593;55.714;37.436;2022-10-29T08:01:51;16.15;;;5.93;;
65031;SDS011;51593;55.714;37.436;2022-10-29T08:04:17;18.27;;;6.30;;
65031;SDS011;51593;55.714;37.436;2022-10-29T08:06:43;15.38;;;6.57;;
65031;SDS011;51593;55.714;37.436;2022-10-29T08:09:09;18.58;;;7.53;;
65031;SDS011;51593;55.714;37.436;2022-10-29T08:11:36;17.88;;;6.40;;
65031;SDS011;51593;55.714;37.436;2022-10-29T08:14:01;20.05;;;7.03;;
65031;SDS011;51593;55.714;37.436;2022-10-29T08:16:27;14.32;;;6.40;;
65031;SDS011;51593;55.714;37.436;2022-10-29T08:18:54;17.10;;;6.85;;
65031;SDS011;51593;55.714;37.436;2022-10-29T08:21:20;14.02;;;6.53;;
65031;SDS011;51593;55.714;37.436;2022-10-29T08:23:46;18.55;;;7.63;;
65031;SDS011;51593;55.714;37.436;2022-10-29T08:26:12;15.60;;;7.40;;
65031;SDS011;51593;55.714;37.436;2022-10-29T08:28:38;14.75;;;6.40;;
65031;SDS011;51593;55.714;37.436;2022-10-29T08:31:04;18.23;;;7.00;;
65031;SDS011;51593;55.714;37.436;2022-10-29T08:33:30;21.63;;;8.25;;
65031;SDS011;51593;55.714;37.436;2022-10-29T08:35:56;19.33;;;6.97;;
65031;SDS011;51593;55.714;37.436;2022-10-29T08:38:21;15.32;;;6.53;;
65031;SDS011;51593;55.714;37.436;2022-10-29T08:48:55;15.45;;;6.20;;
65031;SDS011;51593;55.714;37.436;2022-10-29T08:51:27;16.08;;;5.68;;
65031;SDS011;51593;55.714;37.436;2022-10-29T08:53:56;18.67;;;6.60;;
65031;SDS011;51593;55.714;37.436;2022-10-29T08:56:36;27.17;;;7.00;;
65031;SDS011;51593;55.714;37.436;2022-10-29T09:01:46;20.20;;;7.10;;
65031;SDS011;51593;55.714;37.436;2022-10-29T09:09:43;23.77;;;7.18;;
65031;SDS011;51593;55.714;37.436;2022-10-29T09:26:09;16.35;;;6.80;;
65031;SDS011;51593;55.714;37.436;2022-10-29T09:29:01;19.67;;;5.75;;
65031;SDS011;51593;55.714;37.436;2022-10-29T09:32:00;15.38;;;6.68;;
65031;SDS011;51593;55.714;37.436;2022-10-29T09:40:28;20.88;;;6.82;;
65031;SDS011;51593;55.714;37.436;2022-10-29T09:43:00;17.17;;;6.75;;
65031;SDS011;51593;55.714;37.436;2022-10-29T09:45:42;15.98;;;6.53;;
65031;SDS011;51593;55.714;37.436;2022-10-29T09:48:18;20.92;;;8.15;;
65031;SDS011;51593;55.714;37.436;2022-10-29T09:51:07;19.65;;;7.10;;
65031;SDS011;51593;55.714;37.436;2022-10-29T09:56:18;17.33;;;7.07;;
65031;SDS011;51593;55.714;37.436;2022-10-29T09:58:45;19.27;;;7.45;;
65031;SDS011;51593;55.714;37.436;2022-10-29T10:01:15;22.05;;;8.35;;
65031;SDS011;51593;55.714;37.436;2022-10-29T10:03:41;23.73;;;8.00;;
65031;SDS011;51593;55.714;37.436;2022-10-29T10:06:12;22.98;;;7.45;;
65031;SDS011;51593;55.714;37.436;2022-10-29T10:11:37;24.83;;;9.00;;
65031;SDS011;51593;55.714;37.436;2022-10-29T10:14:12;19.45;;;7.85;;
65031;SDS011;51593;55.714;37.436;2022-10-29T10:16:44;20.55;;;8.25;;
65031;SDS011;51593;55.714;37.436;2022-10-29T10:19:29;17.17;;;8.20;;
65031;SDS011;51593;55.714;37.436;2022-10-29T10:21:56;18.17;;;7.65;;
65031;SDS011;51593;55.714;37.436;2022-10-29T10:24:33;23.05;;;8.63;;
65031;SDS011;51593;55.714;37.436;2022-10-29T10:27:00;16.67;;;7.95;;
65031;SDS011;51593;55.714;37.436;2022-10-29T10:32:40;20.95;;;8.27;;
65031;SDS011;51593;55.714;37.436;2022-10-29T10:35:22;21.13;;;9.27;;
65031;SDS011;51593;55.714;37.436;2022-10-29T10:37:49;26.40;;;9.10;;
65031;SDS011;51593;55.714;37.436;2022-10-29T10:40:20;18.08;;;7.95;;
65031;SDS011;51593;55.714;37.436;2022-10-29T10:42:48;24.35;;;9.48;;
65031;SDS011;51593;55.714;37.436;2022-10-29T10:45:24;20.13;;;9.95;;
65031;SDS011;51593;55.714;37.436;2022-10-29T10:47:55;27.92;;;9.88;;
65031;SDS011;51593;55.714;37.436;2022-10-29T10:52:52;23.60;;;9.57;;
65031;SDS011;51593;55.714;37.436;2022-10-29T10:55:35;18.10;;;8.88;;
65031;SDS011;51593;55.714;37.436;2022-10-29T11:00:43;24.25;;;9.40;;
65031;SDS011;51593;55.714;37.436;2022-10-29T11:03:14;24.30;;;9.65;;
65031;SDS011;51593;55.714;37.436;2022-10-29T11:05:45;23.25;;;9.70;;
65031;SDS011;51593;55.714;37.436;2022-10-29T11:08:59;22.70;;;10.27;;
65031;SDS011;51593;55.714;37.436;2022-10-29T11:11:12;24.63;;;9.75;;
65031;SDS011;51593;55.714;37.436;2022-10-29T11:13:43;19.48;;;9.65;;
65031;SDS011;51593;55.714;37.436;2022-10-29T11:16:20;18.60;;;9.55;;
65031;SDS011;51593;55.714;37.436;2022-10-29T11:19:04;17.38;;;9.05;;
65031;SDS011;51593;55.714;37.436;2022-10-29T11:27:22;22.70;;;9.93;;
65031;SDS011;51593;55.714;37.436;2022-10-29T11:32:33;19.67;;;9.88;;
65031;SDS011;51593;55.714;37.436;2022-10-29T11:35:13;19.42;;;9.15;;
65031;SDS011;51593;55.714;37.436;2022-10-29T11:40:27;21.27;;;10.10;;
65031;SDS011;51593;55.714;37.436;2022-10-29T11:42:58;20.92;;;10.30;;
65031;SDS011;51593;55.714;37.436;2022-10-29T11:54:01;19.33;;;9.18;;
65031;SDS011;51593;55.714;37.436;2022-10-29T12:10:41;19.75;;;9.88;;
65031;SDS011;51593;55.714;37.436;2022-10-29T12:12:52;18.75;;;8.73;;
65031;SDS011;51593;55.714;37.436;2022-10-29T12:15:42;17.38;;;8.85;;
65031;SDS011;51593;55.714;37.436;2022-10-29T12:26:19;17.27;;;8.38;;
65031;SDS011;51593;55.714;37.436;2022-10-29T12:39:42;14.77;;;7.60;;
65031;SDS011;51593;55.714;37.436;2022-10-29T12:42:44;16.17;;;7.82;;
65031;SDS011;51593;55.714;37.436;2022-10-29T12:45:07;16.10;;;8.13;;
65031;SDS011;51593;55.714;37.436;2022-10-29T12:54:23;15.88;;;8.43;;
65031;SDS011;51593;55.714;37.436;2022-10-29T12:56:31;18.75;;;7.75;;
65031;SDS011;51593;55.714;37.436;2022-10-29T12:58:57;18.15;;;7.50;;
65031;SDS011;51593;55.714;37.436;2022-10-29T13:01:50;16.88;;;7.50;;
65031;SDS011;51593;55.714;37.436;2022-10-29T13:04:29;16.48;;;7.63;;
65031;SDS011;51593;55.714;37.436;2022-10-29T13:06:58;17.67;;;7.43;;
65031;SDS011;51593;55.714;37.436;2022-10-29T13:09:34;17.02;;;8.60;;
65031;SDS011;51593;55.714;37.436;2022-10-29T13:12:02;17.02;;;7.35;;
65031;SDS011;51593;55.714;37.436;2022-10-29T13:17:20;17.98;;;7.95;;
65031;SDS011;51593;55.714;37.436;2022-10-29T13:19:56;17.25;;;7.70;;
65031;SDS011;51593;55.714;37.436;2022-10-29T13:27:58;16.03;;;7.90;;
65031;SDS011;51593;55.714;37.436;2022-10-29T13:30:25;24.85;;;9.07;;
65031;SDS011;51593;55.714;37.436;2022-10-29T13:32:52;29.88;;;12.55;;
65031;SDS011;51593;55.714;37.436;2022-10-29T13:42:47;19.33;;;8.18;;
65031;SDS011;51593;55.714;37.436;2022-10-29T13:45:40;16.55;;;7.88;;
65031;SDS011;51593;55.714;37.436;2022-10-29T13:48:12;20.17;;;8.40;;
65031;SDS011;51593;55.714;37.436;2022-10-29T13:51:10;17.05;;;8.25;;
65031;SDS011;51593;55.714;37.436;2022-10-29T13:53:41;15.77;;;7.72;;
65031;SDS011;51593;55.714;37.436;2022-10-29T13:56:36;18.58;;;8.40;;
65031;SDS011;51593;55.714;37.436;2022-10-29T13:59:11;20.88;;;8.35;;
65031;SDS011;51593;55.714;37.436;2022-10-29T14:01:41;23.75;;;9.02;;
65031;SDS011;51593;55.714;37.436;2022-10-29T14:04:35;20.95;;;8.90;;
65031;SDS011;51593;55.714;37.436;2022-10-29T14:07:03;19.35;;;8.38;;
65031;SDS011;51593;55.714;37.436;2022-10-29T14:09:36;19.80;;;8.75;;
65031;SDS011;51593;55.714;37.436;2022-10-29T14:12:16;19.38;;;8.02;;
65031;SDS011;51593;55.714;37.436;2022-10-29T14:14:47;20.10;;;8.80;;
65031;SDS011;51593;55.714;37.436;2022-10-29T14:17:18;23.60;;;8.35;;
65031;SDS011;51593;55.714;37.436;2022-10-29T14:19:44;21.77;;;8.43;;
65031;SDS011;51593;55.714;37.436;2022-10-29T14:25:00;22.25;;;8.73;;
65031;SDS011;51593;55.714;37.436;2022-10-29T14:27:26;29.25;;;9.27;;
65031;SDS011;51593;55.714;37.436;2022-10-29T14:30:09;26.50;;;8.65;;
65031;SDS011;51593;55.714;37.436;2022-10-29T14:32:39;20.60;;;7.25;;
65031;SDS011;51593;55.714;37.436;2022-10-29T14:35:05;21.73;;;7.60;;
65031;SDS011;51593;55.714;37.436;2022-10-29T14:37:32;22.98;;;7.65;;
65031;SDS011;51593;55.714;37.436;2022-10-29T14:40:05;21.70;;;8.32;;
65031;SDS011;51593;55.714;37.436;2022-10-29T14:42:59;26.38;;;7.38;;
65031;SDS011;51593;55.714;37.436;2022-10-29T14:45:26;26.80;;;7.75;;
65031;SDS011;51593;55.714;37.436;2022-10-29T14:47:59;20.88;;;7.45;;
65031;SDS011;51593;55.714;37.436;2022-10-29T14:50:28;24.23;;;8.98;;
65031;SDS011;51593;55.714;37.436;2022-10-29T14:52:55;21.92;;;7.00;;
65031;SDS011;51593;55.714;37.436;2022-10-29T14:55:26;17.98;;;6.78;;
65031;SDS011;51593;55.714;37.436;2022-10-29T14:58:05;15.35;;;6.65;;
65031;SDS011;51593;55.714;37.436;2022-10-29T15:00:35;19.27;;;6.80;;
65031;SDS011;51593;55.714;37.436;2022-10-29T15:03:01;22.27;;;8.25;;
65031;SDS011;51593;55.714;37.436;2022-10-29T15:05:29;18.25;;;7.47;;
65031;SDS011;51593;55.714;37.436;2022-10-29T15:08:29;19.20;;;7.43;;
65031;SDS011;51593;55.714;37.436;2022-10-29T15:16:01;25.13;;;7.80;;
65031;SDS011;51593;55.714;37.436;2022-10-29T15:18:33;25.05;;;7.70;;
65031;SDS011;51593;55.714;37.436;2022-10-29T15:21:00;21.35;;;8.18;;
65031;SDS011;51593;55.714;37.436;2022-10-29T15:25:56;18.25;;;6.65;;
65031;SDS011;51593;55.714;37.436;2022-10-29T15:28:30;13.75;;;6.82;;
65031;SDS011;51593;55.714;37.436;2022-10-29T15:31:02;20.95;;;6.80;;
65031;SDS011;51593;55.714;37.436;2022-10-29T15:33:29;12.70;;;6.32;;
65031;SDS011;51593;55.714;37.436;2022-10-29T15:35:58;14.77;;;6.40;;
65031;SDS011;51593;55.714;37.436;2022-10-29T15:43:51;11.40;;;6.13;;
65031;SDS011;51593;55.714;37.436;2022-10-29T15:46:22;11.13;;;6.07;;
65031;SDS011;51593;55.714;37.436;2022-10-29T15:48:50;12.50;;;6.43;;
65031;SDS011;51593;55.714;37.436;2022-10-29T15:51:16;10.20;;;5.80;;
65031;SDS011;51593;55.714;37.436;2022-10-29T15:53:42;9.90;;;6.22;;
65031;SDS011;51593;55.714;37.436;2022-10-29T15:56:13;10.95;;;6.22;;
65031;SDS011;51593;55.714;37.436;2022-10-29T15:58:40;9.52;;;5.82;;
65031;SDS011;51593;55.714;37.436;2022-10-29T16:01:06;11.20;;;6.40;;
65031;SDS011;51593;55.714;37.436;2022-10-29T16:03:33;10.20;;;6.07;;
65031;SDS011;51593;55.714;37.436;2022-10-29T16:06:02;12.90;;;6.40;;
65031;SDS011;51593;55.714;37.436;2022-10-29T16:11:01;10.75;;;6.00;;
65031;SDS011;51593;55.714;37.436;2022-10-29T16:13:30;11.77;;;6.70;;
65031;SDS011;51593;55.714;37.436;2022-10-29T16:15:57;11.70;;;5.70;;
65031;SDS011;51593;55.714;37.436;2022-10-29T16:18:23;12.15;;;6.00;;
65031;SDS011;51593;55.714;37.436;2022-10-29T16:20:49;12.13;;;6.15;;
65031;SDS011;51593;55.714;37.436;2022-10-29T16:23:18;11.82;;;6.13;;
65031;SDS011;51593;55.714;37.436;2022-10-29T16:25:44;12.82;;;6.03;;
65031;SDS011;51593;55.714;37.436;2022-10-29T16:28:10;14.80;;;6.28;;
65031;SDS011;51593;55.714;37.436;2022-10-29T16:30:36;10.93;;;5.65;;
65031;SDS011;51593;55.714;37.436;2022-10-29T16:33:02;8.98;;;5.78;;
65031;SDS011;51593;55.714;37.436;2022-10-29T16:35:28;10.38;;;5.80;;
65031;SDS011;51593;55.714;37.436;2022-10-29T16:37:54;11.95;;;6.30;;
65031;SDS011;51593;55.714;37.436;2022-10-29T16:40:22;10.00;;;5.80;;
65031;SDS011;51593;55.714;37.436;2022-10-29T16:42:49;11.07;;;6.07;;
65031;SDS011;51593;55.714;37.436;2022-10-29T16:45:19;12.23;;;6.40;;
65031;SDS011;51593;55.714;37.436;2022-10-29T16:47:46;10.00;;;5.65;;
65031;SDS011;51593;55.714;37.436;2022-10-29T16:50:25;11.38;;;5.75;;
65031;SDS011;51593;55.714;37.436;2022-10-29T16:55:23;9.15;;;5.53;;
65031;SDS011;51593;55.714;37.436;2022-10-29T16:57:50;11.65;;;5.93;;
65031;SDS011;51593;55.714;37.436;2022-10-29T17:00:16;13.23;;;6.65;;
65031;SDS011;51593;55.714;37.436;2022-10-29T17:02:42;13.13;;;6.85;;
65031;SDS011;51593;55.714;37.436;2022-10-29T17:05:10;14.85;;;7.03;;
65031;SDS011;51593;55.714;37.436;2022-10-29T17:07:37;16.42;;;6.72;;
65031;SDS011;51593;55.714;37.436;2022-10-29T17:10:04;18.98;;;6.40;;
65031;SDS011;51593;55.714;37.436;2022-10-29T17:12:30;20.33;;;7.43;;
65031;SDS011;51593;55.714;37.436;2022-10-29T17:14:56;11.05;;;5.68;;
65031;SDS011;51593;55.714;37.436;2022-10-29T17:17:22;13.65;;;6.47;;
65031;SDS011;51593;55.714;37.436;2022-10-29T17:19:47;13.40;;;5.88;;
65031;SDS011;51593;55.714;37.436;2022-10-29T17:22:14;14.60;;;6.20;;
65031;SDS011;51593;55.714;37.436;2022-10-29T17:24:43;19.33;;;5.50;;
65031;SDS011;51593;55.714;37.436;2022-10-29T17:27:10;12.82;;;6.10;;
65031;SDS011;51593;55.714;37.436;2022-10-29T17:29:36;16.35;;;6.18;;
65031;SDS011;51593;55.714;37.436;2022-10-29T17:32:03;11.98;;;6.50;;